sensor_id;sensor_type;location;lat;lon;timestamp;P1;P2;P0
26185;PMS7003;20067;48.764;9.176;2022-09-03T00:00:13;10.25;9.50;5.00
26185;PMS7003;20067;48.764;9.176;2022-09-03T00:11:17;11.00;11.00;6.00
26185;PMS7003;20067;48.764;9.176;2022-09-03T00:14:04;11.00;11.00;6.00
26185;PMS7003;20067;48.764;9.176;2022-09-03T00:16:52;10.25;10.00;5.75
26185;PMS7003;20067;48.764;9.176;2022-09-03T00:19:21;10.00;10.00;5.00
26185;PMS7003;20067;48.764;9.176;2022-09-03T00:22:12;11.00;11.00;6.00
26185;PMS7003;20067;48.764;9.176;2022-09-03T00:24:43;9.50;9.50;5.00
26185;PMS7003;20067;48.764;9.176;2022-09-03T00:27:20;9.50;9.50;5.00
26185;PMS7003;20067;48.764;9.176;2022-09-03T00:29:51;8.75;8.00;5.00
26185;PMS7003;20067;48.764;9.176;2022-09-03T00:32:44;10.25;10.00;5.25
26185;PMS7003;20067;48.764;9.176;2022-09-03T00:35:16;9.50;9.25;5.00
26185;PMS7003;20067;48.764;9.176;2022-09-03T00:37:50;10.25;10.25;6.00
26185;PMS7003;20067;48.764;9.176;2022-09-03T00:40:23;9.50;9.00;5.00
26185;PMS7003;20067;48.764;9.176;2022-09-03T00:43:08;8.00;8.00;5.00
26185;PMS7003;20067;48.764;9.176;2022-09-03T00:48:25;8.50;8.00;5.00
26185;PMS7003;20067;48.764;9.176;2022-09-03T00:51:31;9.50;9.50;5.25
26185;PMS7003;20067;48.764;9.176;2022-09-03T00:54:01;7.25;7.25;3.00
26185;PMS7003;20067;48.764;9.176;2022-09-03T01:05:23;8.00;8.00;4.25
26185;PMS7003;20067;48.764;9.176;2022-09-03T01:08:23;10.50;8.00;4.75
26185;PMS7003;20067;48.764;9.176;2022-09-03T01:13:54;8.50;8.50;5.00
26185;PMS7003;20067;48.764;9.176;2022-09-03T01:16:53;10.50;9.00;6.00
26185;PMS7003;20067;48.764;9.176;2022-09-03T01:19:36;10.25;9.25;5.00
26185;PMS7003;20067;48.764;9.176;2022-09-03T01:33:46;7.00;7.00;3.00
26185;PMS7003;20067;48.764;9.176;2022-09-03T01:37:04;12.00;12.00;6.25
26185;PMS7003;20067;48.764;9.176;2022-09-03T01:39:16;9.25;9.25;6.00
26185;PMS7003;20067;48.764;9.176;2022-09-03T01:41:51;10.50;7.50;3.75
26185;PMS7003;20067;48.764;9.176;2022-09-03T01:53:12;9.00;7.50;4.00
26185;PMS7003;20067;48.764;9.176;2022-09-03T02:01:32;9.00;9.00;5.00
26185;PMS7003;20067;48.764;9.176;2022-09-03T02:04:12;8.75;8.75;3.00
26185;PMS7003;20067;48.764;9.176;2022-09-03T02:06:44;8.25;7.25;3.00
26185;PMS7003;20067;48.764;9.176;2022-09-03T02:09:12;8.00;8.00;3.00
26185;PMS7003;20067;48.764;9.176;2022-09-03T02:11:39;9.00;6.50;3.00
26185;PMS7003;20067;48.764;9.176;2022-09-03T02:14:07;7.00;7.00;3.00
26185;PMS7003;20067;48.764;9.176;2022-09-03T02:16:34;8.75;7.00;3.00
26185;PMS7003;20067;48.764;9.176;2022-09-03T02:19:00;8.25;8.00;4.00
26185;PMS7003;20067;48.764;9.176;2022-09-03T02:21:33;8.00;7.75;4.00
26185;PMS7003;20067;48.764;9.176;2022-09-03T02:24:02;7.00;7.00;3.00
26185;PMS7003;20067;48.764;9.176;2022-09-03T02:26:28;8.75;8.75;5.00
26185;PMS7003;20067;48.764;9.176;2022-09-03T02:28:54;8.75;8.75;5.50
26185;PMS7003;20067;48.764;9.176;2022-09-03T02:31:20;8.25;8.25;3.50
26185;PMS7003;20067;48.764;9.176;2022-09-03T02:33:47;7.00;7.00;3.00
26185;PMS7003;20067;48.764;9.176;2022-09-03T02:36:14;9.75;7.50;4.50
26185;PMS7003;20067;48.764;9.176;2022-09-03T02:38:43;8.25;8.25;3.25
26185;PMS7003;20067;48.764;9.176;2022-09-03T02:41:10;7.50;7.50;3.75
26185;PMS7003;20067;48.764;9.176;2022-09-03T02:46:21;9.00;9.00;5.00
26185;PMS7003;20067;48.764;9.176;2022-09-03T02:48:51;9.25;9.25;5.00
26185;PMS7003;20067;48.764;9.176;2022-09-03T02:51:17;12.00;8.25;5.00
26185;PMS7003;20067;48.764;9.176;2022-09-03T02:53:43;11.00;9.00;6.00
26185;PMS7003;20067;48.764;9.176;2022-09-03T02:56:09;8.25;8.25;4.00
26185;PMS7003;20067;48.764;9.176;2022-09-03T02:58:35;9.00;9.00;3.00
26185;PMS7003;20067;48.764;9.176;2022-09-03T03:01:01;9.75;9.00;5.00
26185;PMS7003;20067;48.764;9.176;2022-09-03T03:03:27;9.00;9.00;5.00
26185;PMS7003;20067;48.764;9.176;2022-09-03T03:05:53;9.00;6.50;2.75
26185;PMS7003;20067;48.764;9.176;2022-09-03T03:08:22;9.75;8.75;5.00
26185;PMS7003;20067;48.764;9.176;2022-09-03T03:10:51;9.00;9.00;3.00
26185;PMS7003;20067;48.764;9.176;2022-09-03T03:13:20;9.25;7.50;4.00
26185;PMS7003;20067;48.764;9.176;2022-09-03T03:15:46;7.75;7.75;4.50
26185;PMS7003;20067;48.764;9.176;2022-09-03T03:18:13;9.00;7.00;3.00
26185;PMS7003;20067;48.764;9.176;2022-09-03T03:20:39;9.50;9.50;3.50
26185;PMS7003;20067;48.764;9.176;2022-09-03T03:23:05;9.75;9.75;5.00
26185;PMS7003;20067;48.764;9.176;2022-09-03T03:25:32;7.50;7.50;4.00
26185;PMS7003;20067;48.764;9.176;2022-09-03T03:27:58;10.75;10.00;4.50
26185;PMS7003;20067;48.764;9.176;2022-09-03T03:30:24;8.75;7.00;3.00
26185;PMS7003;20067;48.764;9.176;2022-09-03T03:32:51;8.00;8.00;4.50
26185;PMS7003;20067;48.764;9.176;2022-09-03T03:35:18;7.00;7.00;3.00
26185;PMS7003;20067;48.764;9.176;2022-09-03T03:37:43;10.00;9.00;5.00
26185;PMS7003;20067;48.764;9.176;2022-09-03T03:40:09;7.00;6.50;3.00
26185;PMS7003;20067;48.764;9.176;2022-09-03T03:42:35;10.00;8.00;5.00
26185;PMS7003;20067;48.764;9.176;2022-09-03T03:45:02;7.75;7.75;5.00
26185;PMS7003;20067;48.764;9.176;2022-09-03T03:47:28;8.00;6.75;3.00
26185;PMS7003;20067;48.764;9.176;2022-09-03T03:49:57;6.50;6.50;3.00
26185;PMS7003;20067;48.764;9.176;2022-09-03T03:52:23;8.00;8.00;5.00
26185;PMS7003;20067;48.764;9.176;2022-09-03T03:54:50;7.00;7.00;2.75
26185;PMS7003;20067;48.764;9.176;2022-09-03T03:57:17;10.25;8.00;5.00
26185;PMS7003;20067;48.764;9.176;2022-09-03T03:59:47;8.00;8.00;4.00
26185;PMS7003;20067;48.764;9.176;2022-09-03T04:02:13;7.00;7.00;3.00
26185;PMS7003;20067;48.764;9.176;2022-09-03T04:04:39;8.50;8.00;5.00
26185;PMS7003;20067;48.764;9.176;2022-09-03T04:07:05;8.00;8.00;3.00
26185;PMS7003;20067;48.764;9.176;2022-09-03T04:09:31;7.00;7.00;3.00
26185;PMS7003;20067;48.764;9.176;2022-09-03T04:11:57;8.00;7.50;3.00
26185;PMS7003;20067;48.764;9.176;2022-09-03T04:14:23;8.25;8.25;3.25
26185;PMS7003;20067;48.764;9.176;2022-09-03T04:16:50;8.75;7.50;3.00
26185;PMS7003;20067;48.764;9.176;2022-09-03T04:19:15;8.00;8.00;3.00
26185;PMS7003;20067;48.764;9.176;2022-09-03T04:21:42;7.75;7.25;3.00
26185;PMS7003;20067;48.764;9.176;2022-09-03T04:24:08;10.50;10.25;6.00
26185;PMS7003;20067;48.764;9.176;2022-09-03T04:26:34;7.75;7.00;4.00
26185;PMS7003;20067;48.764;9.176;2022-09-03T04:29:02;8.50;8.00;3.00
26185;PMS7003;20067;48.764;9.176;2022-09-03T04:31:32;8.00;8.00;4.50
26185;PMS7003;20067;48.764;9.176;2022-09-03T04:33:59;9.50;7.25;5.00
26185;PMS7003;20067;48.764;9.176;2022-09-03T04:36:26;10.00;7.50;5.00
26185;PMS7003;20067;48.764;9.176;2022-09-03T04:38:53;9.50;7.50;5.00
26185;PMS7003;20067;48.764;9.176;2022-09-03T04:41:23;8.00;7.50;4.00
26185;PMS7003;20067;48.764;9.176;2022-09-03T04:43:54;10.00;8.00;5.00
26185;PMS7003;20067;48.764;9.176;2022-09-03T04:46:22;7.50;7.50;4.00
26185;PMS7003;20067;48.764;9.176;2022-09-03T04:48:51;9.00;8.50;5.25
26185;PMS7003;20067;48.764;9.176;2022-09-03T04:51:19;10.25;9.25;3.50
26185;PMS7003;20067;48.764;9.176;2022-09-03T04:53:47;12.00;10.75;5.50
26185;PMS7003;20067;48.764;9.176;2022-09-03T04:56:19;9.25;8.00;5.00
26185;PMS7003;20067;48.764;9.176;2022-09-03T04:58:47;11.00;10.00;5.00
26185;PMS7003;20067;48.764;9.176;2022-09-03T05:01:19;11.75;11.00;6.00
26185;PMS7003;20067;48.764;9.176;2022-09-03T05:03:47;7.75;7.75;4.50
26185;PMS7003;20067;48.764;9.176;2022-09-03T05:06:13;9.75;8.25;5.00
26185;PMS7003;20067;48.764;9.176;2022-09-03T05:08:41;10.00;9.00;5.00
26185;PMS7003;20067;48.764;9.176;2022-09-03T05:11:08;10.00;9.75;6.00
26185;PMS7003;20067;48.764;9.176;2022-09-03T05:13:34;11.00;11.00;6.00
26185;PMS7003;20067;48.764;9.176;2022-09-03T05:16:05;9.25;8.00;5.00
26185;PMS7003;20067;48.764;9.176;2022-09-03T05:18:32;7.50;7.50;3.00
26185;PMS7003;20067;48.764;9.176;2022-09-03T05:21:06;9.00;9.00;5.00
26185;PMS7003;20067;48.764;9.176;2022-09-03T05:23:39;8.75;8.00;5.00
26185;PMS7003;20067;48.764;9.176;2022-09-03T05:26:07;10.50;10.50;5.00
26185;PMS7003;20067;48.764;9.176;2022-09-03T05:28:35;8.00;8.00;5.00
26185;PMS7003;20067;48.764;9.176;2022-09-03T05:31:09;10.25;10.25;5.50
26185;PMS7003;20067;48.764;9.176;2022-09-03T05:33:43;9.50;8.50;5.00
26185;PMS7003;20067;48.764;9.176;2022-09-03T05:36:15;9.25;9.25;5.00
26185;PMS7003;20067;48.764;9.176;2022-09-03T05:38:43;7.50;7.25;3.00
26185;PMS7003;20067;48.764;9.176;2022-09-03T05:41:10;8.25;8.25;5.00
26185;PMS7003;20067;48.764;9.176;2022-09-03T05:43:38;8.25;8.25;5.25
26185;PMS7003;20067;48.764;9.176;2022-09-03T05:46:13;10.00;10.00;5.00
26185;PMS7003;20067;48.764;9.176;2022-09-03T05:48:42;10.00;10.00;5.00
26185;PMS7003;20067;48.764;9.176;2022-09-03T05:51:12;13.50;12.25;7.00
26185;PMS7003;20067;48.764;9.176;2022-09-03T05:53:40;10.50;10.25;5.25
26185;PMS7003;20067;48.764;9.176;2022-09-03T05:56:14;10.25;8.50;4.00
26185;PMS7003;20067;48.764;9.176;2022-09-03T05:58:42;8.25;8.00;5.25
26185;PMS7003;20067;48.764;9.176;2022-09-03T06:01:22;11.25;11.25;6.25
26185;PMS7003;20067;48.764;9.176;2022-09-03T06:03:53;9.75;9.00;6.00
26185;PMS7003;20067;48.764;9.176;2022-09-03T06:06:29;11.00;9.00;4.00
26185;PMS7003;20067;48.764;9.176;2022-09-03T06:08:57;11.75;8.75;5.50
26185;PMS7003;20067;48.764;9.176;2022-09-03T06:11:24;9.50;9.00;6.00
26185;PMS7003;20067;48.764;9.176;2022-09-03T06:13:55;9.00;9.00;4.50
26185;PMS7003;20067;48.764;9.176;2022-09-03T06:16:22;11.00;11.00;6.00
26185;PMS7003;20067;48.764;9.176;2022-09-03T06:18:48;10.50;10.00;6.00
26185;PMS7003;20067;48.764;9.176;2022-09-03T06:21:14;11.75;9.75;6.50
26185;PMS7003;20067;48.764;9.176;2022-09-03T06:23:40;11.00;10.25;5.50
26185;PMS7003;20067;48.764;9.176;2022-09-03T06:26:07;9.50;8.50;4.00
26185;PMS7003;20067;48.764;9.176;2022-09-03T06:28:35;10.75;10.25;5.75
26185;PMS7003;20067;48.764;9.176;2022-09-03T06:31:03;10.25;9.25;6.00
26185;PMS7003;20067;48.764;9.176;2022-09-03T06:33:34;11.00;11.00;5.00
26185;PMS7003;20067;48.764;9.176;2022-09-03T06:36:01;11.50;11.00;6.00
26185;PMS7003;20067;48.764;9.176;2022-09-03T06:38:30;11.00;9.00;6.00
26185;PMS7003;20067;48.764;9.176;2022-09-03T06:40:59;11.00;11.00;6.00
26185;PMS7003;20067;48.764;9.176;2022-09-03T06:43:27;9.50;9.50;6.00
26185;PMS7003;20067;48.764;9.176;2022-09-03T06:45:58;8.75;8.75;6.00
26185;PMS7003;20067;48.764;9.176;2022-09-03T06:48:24;11.25;9.75;6.50
26185;PMS7003;20067;48.764;9.176;2022-09-03T06:53:41;9.75;9.75;6.00
26185;PMS7003;20067;48.764;9.176;2022-09-03T06:56:10;11.75;9.75;6.00
26185;PMS7003;20067;48.764;9.176;2022-09-03T06:58:43;12.00;12.00;7.00
26185;PMS7003;20067;48.764;9.176;2022-09-03T07:01:11;12.50;12.00;6.25
26185;PMS7003;20067;48.764;9.176;2022-09-03T07:03:39;9.00;9.00;6.00
26185;PMS7003;20067;48.764;9.176;2022-09-03T07:06:08;13.00;11.00;6.00
26185;PMS7003;20067;48.764;9.176;2022-09-03T07:08:41;11.00;11.00;6.25
26185;PMS7003;20067;48.764;9.176;2022-09-03T07:11:11;15.50;12.50;7.25
26185;PMS7003;20067;48.764;9.176;2022-09-03T07:13:39;12.00;12.00;7.75
26185;PMS7003;20067;48.764;9.176;2022-09-03T07:16:07;12.00;11.50;7.00
26185;PMS7003;20067;48.764;9.176;2022-09-03T07:18:34;12.25;12.00;7.00
26185;PMS7003;20067;48.764;9.176;2022-09-03T07:21:01;10.75;9.75;7.00
26185;PMS7003;20067;48.764;9.176;2022-09-03T07:23:31;13.00;11.00;6.50
26185;PMS7003;20067;48.764;9.176;2022-09-03T07:25:59;12.25;11.50;7.00
26185;PMS7003;20067;48.764;9.176;2022-09-03T07:28:27;13.50;12.00;6.75
26185;PMS7003;20067;48.764;9.176;2022-09-03T07:30:54;12.00;11.75;7.75
26185;PMS7003;20067;48.764;9.176;2022-09-03T07:33:28;12.25;12.25;6.75
26185;PMS7003;20067;48.764;9.176;2022-09-03T07:35:55;14.00;13.00;8.00
26185;PMS7003;20067;48.764;9.176;2022-09-03T07:38:26;13.00;10.50;6.50
26185;PMS7003;20067;48.764;9.176;2022-09-03T07:40:56;14.00;12.00;8.00
26185;PMS7003;20067;48.764;9.176;2022-09-03T07:43:24;15.00;13.75;8.25
26185;PMS7003;20067;48.764;9.176;2022-09-03T07:45:51;14.00;14.00;8.50
26185;PMS7003;20067;48.764;9.176;2022-09-03T07:48:18;13.00;12.00;7.75
26185;PMS7003;20067;48.764;9.176;2022-09-03T07:50:44;13.00;12.75;8.00
26185;PMS7003;20067;48.764;9.176;2022-09-03T07:53:11;14.00;11.50;8.00
26185;PMS7003;20067;48.764;9.176;2022-09-03T07:55:37;16.50;13.00;8.00
26185;PMS7003;20067;48.764;9.176;2022-09-03T07:58:02;10.00;10.00;7.00
26185;PMS7003;20067;48.764;9.176;2022-09-03T08:00:28;13.25;11.50;8.00
26185;PMS7003;20067;48.764;9.176;2022-09-03T08:02:57;15.75;13.00;8.00
26185;PMS7003;20067;48.764;9.176;2022-09-03T08:05:28;11.00;10.75;7.00
26185;PMS7003;20067;48.764;9.176;2022-09-03T08:07:53;12.00;12.00;7.00
26185;PMS7003;20067;48.764;9.176;2022-09-03T08:10:19;12.25;10.75;6.00
26185;PMS7003;20067;48.764;9.176;2022-09-03T08:12:45;11.75;11.75;7.50
26185;PMS7003;20067;48.764;9.176;2022-09-03T08:15:10;10.75;10.00;5.75
26185;PMS7003;20067;48.764;9.176;2022-09-03T08:17:36;12.00;12.00;8.25
26185;PMS7003;20067;48.764;9.176;2022-09-03T08:20:02;9.75;9.75;6.00
26185;PMS7003;20067;48.764;9.176;2022-09-03T08:22:28;10.75;10.00;5.00
26185;PMS7003;20067;48.764;9.176;2022-09-03T08:24:54;14.25;12.00;6.00
26185;PMS7003;20067;48.764;9.176;2022-09-03T08:27:20;11.50;11.00;5.75
26185;PMS7003;20067;48.764;9.176;2022-09-03T08:29:49;12.00;11.00;5.00
26185;PMS7003;20067;48.764;9.176;2022-09-03T08:32:14;10.50;10.50;5.00
26185;PMS7003;20067;48.764;9.176;2022-09-03T08:34:40;13.75;11.00;6.00
26185;PMS7003;20067;48.764;9.176;2022-09-03T08:37:06;10.00;9.50;5.00
26185;PMS7003;20067;48.764;9.176;2022-09-03T08:39:33;9.75;9.00;5.00
26185;PMS7003;20067;48.764;9.176;2022-09-03T08:44:48;12.25;11.25;6.50
26185;PMS7003;20067;48.764;9.176;2022-09-03T08:47:25;11.50;9.00;5.50
26185;PMS7003;20067;48.764;9.176;2022-09-03T08:53:01;11.50;10.75;6.25
26185;PMS7003;20067;48.764;9.176;2022-09-03T08:58:27;14.75;13.00;7.00
26185;PMS7003;20067;48.764;9.176;2022-09-03T09:01:01;11.00;11.00;7.00
26185;PMS7003;20067;48.764;9.176;2022-09-03T09:06:34;8.50;8.50;5.25
26185;PMS7003;20067;48.764;9.176;2022-09-03T09:09:47;11.00;9.00;5.50
26185;PMS7003;20067;48.764;9.176;2022-09-03T09:19:49;12.00;12.00;7.25
26185;PMS7003;20067;48.764;9.176;2022-09-03T09:25:07;13.50;12.00;6.00
26185;PMS7003;20067;48.764;9.176;2022-09-03T09:27:40;13.00;12.00;6.00
26185;PMS7003;20067;48.764;9.176;2022-09-03T09:30:31;12.50;12.50;8.00
26185;PMS7003;20067;48.764;9.176;2022-09-03T09:32:56;10.50;10.50;6.00
26185;PMS7003;20067;48.764;9.176;2022-09-03T09:35:24;12.75;12.25;6.50
26185;PMS7003;20067;48.764;9.176;2022-09-03T09:40:28;13.25;12.75;6.50
26185;PMS7003;20067;48.764;9.176;2022-09-03T09:43:05;12.25;12.00;6.75
26185;PMS7003;20067;48.764;9.176;2022-09-03T09:45:41;9.50;9.50;6.50
26185;PMS7003;20067;48.764;9.176;2022-09-03T09:48:12;14.00;11.00;8.00
26185;PMS7003;20067;48.764;9.176;2022-09-03T09:51:02;14.25;14.00;8.00
26185;PMS7003;20067;48.764;9.176;2022-09-03T09:53:35;15.75;14.50;9.00
26185;PMS7003;20067;48.764;9.176;2022-09-03T09:56:02;12.50;12.50;8.00
26185;PMS7003;20067;48.764;9.176;2022-09-03T09:58:28;10.75;10.75;7.00
26185;PMS7003;20067;48.764;9.176;2022-09-03T10:03:39;13.50;12.00;7.50
26185;PMS7003;20067;48.764;9.176;2022-09-03T10:06:13;13.75;11.00;7.00
26185;PMS7003;20067;48.764;9.176;2022-09-03T10:09:14;13.00;13.00;7.00
26185;PMS7003;20067;48.764;9.176;2022-09-03T10:11:43;14.75;14.00;8.00
26185;PMS7003;20067;48.764;9.176;2022-09-03T10:14:22;16.00;15.00;8.00
26185;PMS7003;20067;48.764;9.176;2022-09-03T10:17:00;14.00;14.00;8.25
26185;PMS7003;20067;48.764;9.176;2022-09-03T10:22:48;14.00;13.00;8.75
26185;PMS7003;20067;48.764;9.176;2022-09-03T10:25:46;14.75;14.00;9.00
26185;PMS7003;20067;48.764;9.176;2022-09-03T10:28:25;14.25;14.25;8.50
26185;PMS7003;20067;48.764;9.176;2022-09-03T10:39:12;12.50;12.50;7.75
26185;PMS7003;20067;48.764;9.176;2022-09-03T10:42:04;14.75;13.00;8.50
26185;PMS7003;20067;48.764;9.176;2022-09-03T10:44:55;15.50;15.00;9.25
26185;PMS7003;20067;48.764;9.176;2022-09-03T10:50:14;13.00;13.00;8.25
26185;PMS7003;20067;48.764;9.176;2022-09-03T10:56:25;12.75;12.50;8.00
26185;PMS7003;20067;48.764;9.176;2022-09-03T11:06:42;16.00;15.75;9.75
26185;PMS7003;20067;48.764;9.176;2022-09-03T11:11:47;11.25;11.00;7.00
26185;PMS7003;20067;48.764;9.176;2022-09-03T11:14:27;14.25;12.75;8.00
26185;PMS7003;20067;48.764;9.176;2022-09-03T11:17:10;11.75;10.25;7.00
26185;PMS7003;20067;48.764;9.176;2022-09-03T11:19:47;12.50;12.00;7.25
26185;PMS7003;20067;48.764;9.176;2022-09-03T11:22:23;12.50;11.75;7.25
26185;PMS7003;20067;48.764;9.176;2022-09-03T11:24:53;14.75;14.25;8.00
26185;PMS7003;20067;48.764;9.176;2022-09-03T11:29:57;12.50;11.25;6.50
26185;PMS7003;20067;48.764;9.176;2022-09-03T11:35:12;12.00;11.00;7.00
26185;PMS7003;20067;48.764;9.176;2022-09-03T11:37:58;15.50;14.75;8.75
26185;PMS7003;20067;48.764;9.176;2022-09-03T11:43:39;13.00;12.25;7.00
26185;PMS7003;20067;48.764;9.176;2022-09-03T11:48:41;16.00;15.00;9.00
26185;PMS7003;20067;48.764;9.176;2022-09-03T11:56:37;14.50;13.50;9.00
26185;PMS7003;20067;48.764;9.176;2022-09-03T12:01:41;15.25;14.00;9.00
26185;PMS7003;20067;48.764;9.176;2022-09-03T12:04:31;16.25;14.75;10.00
26185;PMS7003;20067;48.764;9.176;2022-09-03T12:07:54;15.50;13.25;8.75
26185;PMS7003;20067;48.764;9.176;2022-09-03T12:10:29;14.50;12.75;8.75
26185;PMS7003;20067;48.764;9.176;2022-09-03T12:15:34;16.75;15.75;10.50
26185;PMS7003;20067;48.764;9.176;2022-09-03T12:23:25;17.00;15.25;9.00
26185;PMS7003;20067;48.764;9.176;2022-09-03T12:25:53;15.00;15.00;9.00
26185;PMS7003;20067;48.764;9.176;2022-09-03T12:28:23;17.75;16.00;9.00
26185;PMS7003;20067;48.764;9.176;2022-09-03T12:30:50;14.50;13.25;9.00
26185;PMS7003;20067;48.764;9.176;2022-09-03T12:33:18;9.00;9.00;5.25
26185;PMS7003;20067;48.764;9.176;2022-09-03T12:35:58;9.25;8.00;3.25
26185;PMS7003;20067;48.764;9.176;2022-09-03T12:38:25;8.75;8.75;4.00
26185;PMS7003;20067;48.764;9.176;2022-09-03T12:40:53;9.00;8.25;3.50
26185;PMS7003;20067;48.764;9.176;2022-09-03T12:43:19;9.00;8.00;3.00
26185;PMS7003;20067;48.764;9.176;2022-09-03T12:45:51;11.00;7.50;3.00
26185;PMS7003;20067;48.764;9.176;2022-09-03T12:48:18;8.00;8.00;4.75
26185;PMS7003;20067;48.764;9.176;2022-09-03T12:50:45;7.50;7.00;3.00
26185;PMS7003;20067;48.764;9.176;2022-09-03T12:53:14;7.00;7.00;3.00
26185;PMS7003;20067;48.764;9.176;2022-09-03T12:55:54;8.00;8.00;3.00
26185;PMS7003;20067;48.764;9.176;2022-09-03T12:58:41;7.75;7.50;3.00
26185;PMS7003;20067;48.764;9.176;2022-09-03T13:01:25;8.00;6.75;2.00
26185;PMS7003;20067;48.764;9.176;2022-09-03T13:06:55;10.50;8.50;3.75
26185;PMS7003;20067;48.764;9.176;2022-09-03T13:09:24;8.00;7.50;2.75
26185;PMS7003;20067;48.764;9.176;2022-09-03T13:11:54;6.00;6.00;2.00
26185;PMS7003;20067;48.764;9.176;2022-09-03T13:14:23;9.00;7.00;3.00
26185;PMS7003;20067;48.764;9.176;2022-09-03T13:19:49;8.50;6.50;2.00
26185;PMS7003;20067;48.764;9.176;2022-09-03T13:28:15;6.50;6.50;3.00
26185;PMS7003;20067;48.764;9.176;2022-09-03T13:31:18;8.00;8.00;3.00
26185;PMS7003;20067;48.764;9.176;2022-09-03T13:33:56;7.00;7.00;3.00
26185;PMS7003;20067;48.764;9.176;2022-09-03T13:36:32;9.75;8.00;2.50
26185;PMS7003;20067;48.764;9.176;2022-09-03T13:39:10;8.00;7.00;2.50
26185;PMS7003;20067;48.764;9.176;2022-09-03T13:42:15;6.00;4.25;1.00
26185;PMS7003;20067;48.764;9.176;2022-09-03T13:45:34;6.00;6.00;2.00
26185;PMS7003;20067;48.764;9.176;2022-09-03T13:48:05;7.50;6.25;2.50
26185;PMS7003;20067;48.764;9.176;2022-09-03T13:53:43;5.00;5.00;1.75
26185;PMS7003;20067;48.764;9.176;2022-09-03T13:59:18;26.00;23.75;14.75
26185;PMS7003;20067;48.764;9.176;2022-09-03T14:02:10;57.25;45.25;30.25
26185;PMS7003;20067;48.764;9.176;2022-09-03T14:08:07;6.75;6.50;2.00
26185;PMS7003;20067;48.764;9.176;2022-09-03T14:18:43;8.00;7.50;3.75
26185;PMS7003;20067;48.764;9.176;2022-09-03T14:21:30;17.50;16.75;9.50
26185;PMS7003;20067;48.764;9.176;2022-09-03T14:27:09;7.00;6.00;2.00
26185;PMS7003;20067;48.764;9.176;2022-09-03T14:29:35;6.75;4.00;1.00
26185;PMS7003;20067;48.764;9.176;2022-09-03T14:37:52;5.00;5.00;2.00
26185;PMS7003;20067;48.764;9.176;2022-09-03T14:40:29;4.50;4.50;1.00
26185;PMS7003;20067;48.764;9.176;2022-09-03T14:51:42;3.25;3.25;0.75
26185;PMS7003;20067;48.764;9.176;2022-09-03T15:00:13;3.50;3.50;1.00
26185;PMS7003;20067;48.764;9.176;2022-09-03T15:07:49;5.00;4.00;2.00
26185;PMS7003;20067;48.764;9.176;2022-09-03T15:10:20;4.00;4.00;1.00
26185;PMS7003;20067;48.764;9.176;2022-09-03T15:13:20;5.00;4.00;1.25
26185;PMS7003;20067;48.764;9.176;2022-09-03T15:18:28;4.25;4.25;2.00
26185;PMS7003;20067;48.764;9.176;2022-09-03T15:21:02;4.00;4.00;2.00
26185;PMS7003;20067;48.764;9.176;2022-09-03T15:26:40;4.50;4.50;1.75
26185;PMS7003;20067;48.764;9.176;2022-09-03T15:37:57;4.00;4.00;1.25
26185;PMS7003;20067;48.764;9.176;2022-09-03T15:43:21;8.00;4.50;2.00
26185;PMS7003;20067;48.764;9.176;2022-09-03T15:45:54;3.00;3.00;1.00
26185;PMS7003;20067;48.764;9.176;2022-09-03T15:48:33;9.25;6.00;1.25
26185;PMS7003;20067;48.764;9.176;2022-09-03T15:51:27;4.25;4.00;1.00
26185;PMS7003;20067;48.764;9.176;2022-09-03T16:01:50;5.00;5.00;2.00
26185;PMS7003;20067;48.764;9.176;2022-09-03T16:04:26;5.00;5.00;2.00
26185;PMS7003;20067;48.764;9.176;2022-09-03T16:15:46;4.50;4.50;2.00
26185;PMS7003;20067;48.764;9.176;2022-09-03T16:18:38;5.00;5.00;2.00
26185;PMS7003;20067;48.764;9.176;2022-09-03T16:26:57;6.00;6.00;3.00
26185;PMS7003;20067;48.764;9.176;2022-09-03T16:29:59;8.00;5.75;2.00
26185;PMS7003;20067;48.764;9.176;2022-09-03T16:35:51;5.25;5.25;3.00
26185;PMS7003;20067;48.764;9.176;2022-09-03T16:41:26;6.50;5.00;2.00
26185;PMS7003;20067;48.764;9.176;2022-09-03T16:44:03;8.50;7.00;3.00
26185;PMS7003;20067;48.764;9.176;2022-09-03T16:46:44;6.00;5.00;2.50
26185;PMS7003;20067;48.764;9.176;2022-09-03T17:01:07;8.25;6.50;2.25
26185;PMS7003;20067;48.764;9.176;2022-09-03T17:20:21;5.00;5.00;2.00
26185;PMS7003;20067;48.764;9.176;2022-09-03T17:25:39;5.25;4.75;2.00
26185;PMS7003;20067;48.764;9.176;2022-09-03T17:28:46;5.00;5.00;2.00
26185;PMS7003;20067;48.764;9.176;2022-09-03T17:34:32;6.00;6.00;2.00
26185;PMS7003;20067;48.764;9.176;2022-09-03T17:37:33;5.00;5.00;2.00
26185;PMS7003;20067;48.764;9.176;2022-09-03T17:42:55;7.25;6.75;3.25
26185;PMS7003;20067;48.764;9.176;2022-09-03T18:00:05;9.75;8.00;3.00
26185;PMS7003;20067;48.764;9.176;2022-09-03T18:02:34;8.50;8.00;3.00
26185;PMS7003;20067;48.764;9.176;2022-09-03T18:05:07;6.00;6.00;2.25
26185;PMS7003;20067;48.764;9.176;2022-09-03T18:10:42;6.50;6.50;2.75
26185;PMS7003;20067;48.764;9.176;2022-09-03T18:18:52;7.75;7.50;3.00
26185;PMS7003;20067;48.764;9.176;2022-09-03T18:21:27;6.25;6.00;2.25
26185;PMS7003;20067;48.764;9.176;2022-09-03T18:27:16;9.00;8.50;3.75
26185;PMS7003;20067;48.764;9.176;2022-09-03T18:30:09;11.50;9.25;5.00
26185;PMS7003;20067;48.764;9.176;2022-09-03T18:32:55;9.00;9.00;3.50
26185;PMS7003;20067;48.764;9.176;2022-09-03T18:35:42;9.25;9.25;4.00
26185;PMS7003;20067;48.764;9.176;2022-09-03T18:38:29;11.00;9.00;4.00
26185;PMS7003;20067;48.764;9.176;2022-09-03T18:47:26;8.50;8.50;4.00
26185;PMS7003;20067;48.764;9.176;2022-09-03T18:50:20;11.25;10.75;4.00
26185;PMS7003;20067;48.764;9.176;2022-09-03T18:53:34;11.75;10.00;5.50
26185;PMS7003;20067;48.764;9.176;2022-09-03T18:56:44;10.00;8.00;5.00
26185;PMS7003;20067;48.764;9.176;2022-09-03T18:59:59;10.00;8.00;6.00
26185;PMS7003;20067;48.764;9.176;2022-09-03T19:08:51;18.00;16.00;11.50
26185;PMS7003;20067;48.764;9.176;2022-09-03T19:14:58;17.75;17.75;13.50
26185;PMS7003;20067;48.764;9.176;2022-09-03T19:23:46;17.00;17.00;12.00
26185;PMS7003;20067;48.764;9.176;2022-09-03T19:29:46;17.75;16.00;12.75
26185;PMS7003;20067;48.764;9.176;2022-09-03T19:51:23;18.25;17.25;13.00
26185;PMS7003;20067;48.764;9.176;2022-09-03T19:54:17;13.50;13.00;9.00
26185;PMS7003;20067;48.764;9.176;2022-09-03T19:57:10;16.00;14.75;9.75
26185;PMS7003;20067;48.764;9.176;2022-09-03T19:59:56;12.25;12.25;8.50
26185;PMS7003;20067;48.764;9.176;2022-09-03T20:02:41;12.25;12.00;8.00
26185;PMS7003;20067;48.764;9.176;2022-09-03T20:05:30;11.50;11.50;7.25
26185;PMS7003;20067;48.764;9.176;2022-09-03T20:08:15;12.75;12.00;7.00
26185;PMS7003;20067;48.764;9.176;2022-09-03T20:11:00;14.00;13.00;8.25
26185;PMS7003;20067;48.764;9.176;2022-09-03T20:13:28;14.50;12.25;8.00
26185;PMS7003;20067;48.764;9.176;2022-09-03T20:18:48;14.00;13.75;9.00
26185;PMS7003;20067;48.764;9.176;2022-09-03T20:21:43;14.00;14.00;9.00
26185;PMS7003;20067;48.764;9.176;2022-09-03T20:24:35;16.25;14.00;9.00
26185;PMS7003;20067;48.764;9.176;2022-09-03T20:27:33;14.75;14.75;9.00
26185;PMS7003;20067;48.764;9.176;2022-09-03T20:33:24;17.50;17.25;8.75
26185;PMS7003;20067;48.764;9.176;2022-09-03T20:39:17;13.50;13.00;9.00
26185;PMS7003;20067;48.764;9.176;2022-09-03T20:44:37;13.25;12.50;8.00
26185;PMS7003;20067;48.764;9.176;2022-09-03T20:49:40;14.75;14.00;8.50
26185;PMS7003;20067;48.764;9.176;2022-09-03T20:52:14;12.00;12.00;8.00